sensor_id;sensor_type;location;lat;lon;timestamp;pressure;altitude;pressure_sealevel;temperature;humidity
4022;BME280;2025;48.260;16.432;2022-11-15T00:02:24;99932.09;;;7.20;100.00
4022;BME280;2025;48.260;16.432;2022-11-15T00:04:52;99930.25;;;7.16;100.00
4022;BME280;2025;48.260;16.432;2022-11-15T00:07:21;99924.53;;;7.30;100.00
4022;BME280;2025;48.260;16.432;2022-11-15T00:09:48;99923.50;;;7.24;100.00
4022;BME280;2025;48.260;16.432;2022-11-15T00:12:15;99912.09;;;7.19;100.00
4022;BME280;2025;48.260;16.432;2022-11-15T00:14:42;99915.69;;;7.24;100.00
4022;BME280;2025;48.260;16.432;2022-11-15T00:17:09;99916.34;;;7.15;100.00
4022;BME280;2025;48.260;16.432;2022-11-15T00:19:36;99913.66;;;7.12;100.00
4022;BME280;2025;48.260;16.432;2022-11-15T00:22:03;99920.41;;;7.04;100.00
4022;BME280;2025;48.260;16.432;2022-11-15T00:24:31;99909.13;;;7.03;100.00
4022;BME280;2025;48.260;16.432;2022-11-15T00:26:58;99903.03;;;7.03;100.00
4022;BME280;2025;48.260;16.432;2022-11-15T00:29:25;99908.34;;;7.07;100.00
4022;BME280;2025;48.260;16.432;2022-11-15T00:31:52;99911.94;;;7.13;100.00
4022;BME280;2025;48.260;16.432;2022-11-15T00:34:19;99906.47;;;7.02;100.00
4022;BME280;2025;48.260;16.432;2022-11-15T00:36:46;99902.72;;;6.92;100.00
4022;BME280;2025;48.260;16.432;2022-11-15T00:39:13;99905.59;;;7.01;100.00
4022;BME280;2025;48.260;16.432;2022-11-15T00:41:42;99907.50;;;7.08;100.00
4022;BME280;2025;48.260;16.432;2022-11-15T00:44:09;99908.28;;;7.04;100.00
4022;BME280;2025;48.260;16.432;2022-11-15T00:46:36;99913.56;;;7.07;100.00
4022;BME280;2025;48.260;16.432;2022-11-15T00:49:03;99905.16;;;7.19;100.00
4022;BME280;2025;48.260;16.432;2022-11-15T00:51:30;99900.72;;;7.15;100.00
4022;BME280;2025;48.260;16.432;2022-11-15T00:53:57;99898.03;;;7.12;100.00
4022;BME280;2025;48.260;16.432;2022-11-15T00:56:24;99903.47;;;7.21;100.00
4022;BME280;2025;48.260;16.432;2022-11-15T00:58:52;99894.56;;;7.12;100.00
4022;BME280;2025;48.260;16.432;2022-11-15T01:01:19;99899.00;;;7.16;100.00
4022;BME280;2025;48.260;16.432;2022-11-15T01:03:46;99892.16;;;7.21;100.00
4022;BME280;2025;48.260;16.432;2022-11-15T01:06:13;99873.00;;;7.19;100.00
4022;BME280;2025;48.260;16.432;2022-11-15T01:08:41;99875.63;;;7.19;100.00
4022;BME280;2025;48.260;16.432;2022-11-15T01:11:10;99870.31;;;7.16;100.00
4022;BME280;2025;48.260;16.432;2022-11-15T01:13:38;99862.63;;;7.20;100.00
4022;BME280;2025;48.260;16.432;2022-11-15T01:16:09;99869.69;;;7.26;100.00
4022;BME280;2025;48.260;16.432;2022-11-15T01:18:36;99863.38;;;7.16;100.00
4022;BME280;2025;48.260;16.432;2022-11-15T01:21:08;99874.91;;;7.26;100.00
4022;BME280;2025;48.260;16.432;2022-11-15T01:23:35;99864.56;;;7.29;100.00
4022;BME280;2025;48.260;16.432;2022-11-15T01:26:04;99868.16;;;7.34;100.00
4022;BME280;2025;48.260;16.432;2022-11-15T01:28:32;99861.03;;;7.27;100.00
4022;BME280;2025;48.260;16.432;2022-11-15T01:30:59;99859.16;;;7.21;100.00
4022;BME280;2025;48.260;16.432;2022-11-15T01:33:28;99862.03;;;7.32;100.00
4022;BME280;2025;48.260;16.432;2022-11-15T01:35:56;99860.22;;;7.29;100.00
4022;BME280;2025;48.260;16.432;2022-11-15T01:38:23;99855.91;;;7.30;100.00
4022;BME280;2025;48.260;16.432;2022-11-15T01:40:50;99855.06;;;7.31;100.00
4022;BME280;2025;48.260;16.432;2022-11-15T01:43:19;99857.41;;;7.20;100.00
4022;BME280;2025;48.260;16.432;2022-11-15T01:45:50;99859.41;;;7.32;100.00
4022;BME280;2025;48.260;16.432;2022-11-15T01:48:18;99853.28;;;7.30;100.00
4022;BME280;2025;48.260;16.432;2022-11-15T01:50:47;99849.06;;;7.35;100.00
4022;BME280;2025;48.260;16.432;2022-11-15T01:53:15;99850.03;;;7.40;100.00
4022;BME280;2025;48.260;16.432;2022-11-15T01:55:43;99848.16;;;7.33;100.00
4022;BME280;2025;48.260;16.432;2022-11-15T01:58:10;99847.09;;;7.25;100.00
4022;BME280;2025;48.260;16.432;2022-11-15T02:00:37;99842.91;;;7.31;100.00
4022;BME280;2025;48.260;16.432;2022-11-15T02:03:04;99848.75;;;7.21;100.00
4022;BME280;2025;48.260;16.432;2022-11-15T02:05:32;99852.38;;;7.28;100.00
4022;BME280;2025;48.260;16.432;2022-11-15T02:08:01;99863.66;;;7.27;100.00
4022;BME280;2025;48.260;16.432;2022-11-15T02:10:28;99842.75;;;7.25;100.00
4022;BME280;2025;48.260;16.432;2022-11-15T02:12:56;99850.69;;;7.30;100.00
4022;BME280;2025;48.260;16.432;2022-11-15T02:15:26;99851.50;;;7.27;100.00
4022;BME280;2025;48.260;16.432;2022-11-15T02:18:04;99851.34;;;7.21;100.00
4022;BME280;2025;48.260;16.432;2022-11-15T02:20:42;99846.13;;;7.21;100.00
4022;BME280;2025;48.260;16.432;2022-11-15T02:23:50;99852.38;;;7.28;100.00
4022;BME280;2025;48.260;16.432;2022-11-15T02:29:27;99853.19;;;7.25;100.00
4022;BME280;2025;48.260;16.432;2022-11-15T02:32:05;99843.63;;;7.26;100.00
4022;BME280;2025;48.260;16.432;2022-11-15T02:34:43;99854.69;;;7.16;100.00
4022;BME280;2025;48.260;16.432;2022-11-15T02:37:18;99849.41;;;7.13;100.00
4022;BME280;2025;48.260;16.432;2022-11-15T02:39:51;99849.41;;;7.13;100.00
4022;BME280;2025;48.260;16.432;2022-11-15T02:42:26;99859.91;;;7.16;100.00
4022;BME280;2025;48.260;16.432;2022-11-15T02:45:16;99855.59;;;7.18;100.00
4022;BME280;2025;48.260;16.432;2022-11-15T02:47:49;99859.13;;;7.20;100.00
4022;BME280;2025;48.260;16.432;2022-11-15T02:50:21;99851.31;;;7.20;100.00
4022;BME280;2025;48.260;16.432;2022-11-15T02:52:50;99856.75;;;7.29;100.00
4022;BME280;2025;48.260;16.432;2022-11-15T02:55:29;99853.31;;;7.31;100.00
4022;BME280;2025;48.260;16.432;2022-11-15T02:58:00;99852.34;;;7.26;100.00
4022;BME280;2025;48.260;16.432;2022-11-15T03:00:35;99851.25;;;7.17;100.00
4022;BME280;2025;48.260;16.432;2022-11-15T03:03:27;99840.84;;;7.18;100.00
4022;BME280;2025;48.260;16.432;2022-11-15T03:06:05;99852.09;;;7.16;100.00
4022;BME280;2025;48.260;16.432;2022-11-15T03:08:40;99846.84;;;7.14;100.00
4022;BME280;2025;48.260;16.432;2022-11-15T03:11:14;99847.69;;;7.13;100.00
4022;BME280;2025;48.260;16.432;2022-11-15T03:13:47;99852.22;;;7.22;100.00
4022;BME280;2025;48.260;16.432;2022-11-15T03:16:19;99854.44;;;7.05;100.00
4022;BME280;2025;48.260;16.432;2022-11-15T03:18:53;99838.81;;;7.05;100.00
4022;BME280;2025;48.260;16.432;2022-11-15T03:21:22;99843.94;;;7.02;100.00
4022;BME280;2025;48.260;16.432;2022-11-15T03:23:51;99842.81;;;6.92;100.00
4022;BME280;2025;48.260;16.432;2022-11-15T03:26:21;99843.34;;;7.14;100.00
4022;BME280;2025;48.260;16.432;2022-11-15T03:28:52;99838.72;;;7.02;100.00
4022;BME280;2025;48.260;16.432;2022-11-15T03:31:21;99839.47;;;6.96;100.00
4022;BME280;2025;48.260;16.432;2022-11-15T03:34:11;99842.09;;;6.98;100.00
4022;BME280;2025;48.260;16.432;2022-11-15T03:36:43;99846.38;;;6.94;100.00
4022;BME280;2025;48.260;16.432;2022-11-15T03:39:11;99844.50;;;6.90;100.00
4022;BME280;2025;48.260;16.432;2022-11-15T03:41:43;99835.78;;;6.90;100.00
4022;BME280;2025;48.260;16.432;2022-11-15T03:44:16;99832.50;;;6.95;100.00
4022;BME280;2025;48.260;16.432;2022-11-15T03:46:53;99823.59;;;6.87;100.00
4022;BME280;2025;48.260;16.432;2022-11-15T03:49:27;99825.41;;;6.91;100.00
4022;BME280;2025;48.260;16.432;2022-11-15T03:51:57;99821.78;;;6.85;100.00
4022;BME280;2025;48.260;16.432;2022-11-15T03:54:24;99824.38;;;6.85;100.00
4022;BME280;2025;48.260;16.432;2022-11-15T03:56:51;99831.22;;;6.80;100.00
4022;BME280;2025;48.260;16.432;2022-11-15T03:59:18;99824.41;;;6.86;100.00
4022;BME280;2025;48.260;16.432;2022-11-15T04:01:45;99828.56;;;6.78;100.00
4022;BME280;2025;48.260;16.432;2022-11-15T04:04:12;99818.22;;;6.81;100.00
4022;BME280;2025;48.260;16.432;2022-11-15T04:06:41;99809.19;;;6.67;100.00
4022;BME280;2025;48.260;16.432;2022-11-15T04:09:08;99824.25;;;6.79;100.00
4022;BME280;2025;48.260;16.432;2022-11-15T04:11:35;99818.81;;;6.69;100.00
4022;BME280;2025;48.260;16.432;2022-11-15T04:14:02;99828.44;;;6.73;100.00
4022;BME280;2025;48.260;16.432;2022-11-15T04:16:29;99827.59;;;6.74;100.00
4022;BME280;2025;48.260;16.432;2022-11-15T04:18:56;99820.56;;;6.70;100.00
4022;BME280;2025;48.260;16.432;2022-11-15T04:21:36;99827.00;;;6.85;100.00
4022;BME280;2025;48.260;16.432;2022-11-15T04:24:22;99815.78;;;6.87;100.00
4022;BME280;2025;48.260;16.432;2022-11-15T04:26:49;99822.06;;;6.95;100.00
4022;BME280;2025;48.260;16.432;2022-11-15T04:29:17;99806.16;;;6.85;100.00
4022;BME280;2025;48.260;16.432;2022-11-15T04:32:03;99798.31;;;6.83;100.00
4022;BME280;2025;48.260;16.432;2022-11-15T04:34:30;99817.41;;;6.84;100.00
4022;BME280;2025;48.260;16.432;2022-11-15T04:36:57;99819.09;;;6.82;100.00
4022;BME280;2025;48.260;16.432;2022-11-15T04:39:43;99814.59;;;6.74;100.00
4022;BME280;2025;48.260;16.432;2022-11-15T04:42:10;99815.69;;;6.84;100.00
4022;BME280;2025;48.260;16.432;2022-11-15T04:44:37;99819.28;;;6.89;100.00
4022;BME280;2025;48.260;16.432;2022-11-15T04:47:04;99808.69;;;6.82;100.00
4022;BME280;2025;48.260;16.432;2022-11-15T04:49:31;99806.84;;;6.78;100.00
4022;BME280;2025;48.260;16.432;2022-11-15T04:51:59;99797.28;;;6.76;100.00
4022;BME280;2025;48.260;16.432;2022-11-15T04:54:26;99797.28;;;6.76;100.00
4022;BME280;2025;48.260;16.432;2022-11-15T04:56:54;99793.94;;;6.82;100.00
4022;BME280;2025;48.260;16.432;2022-11-15T04:59:21;99804.22;;;6.76;100.00
4022;BME280;2025;48.260;16.432;2022-11-15T05:01:48;99791.00;;;6.68;100.00
4022;BME280;2025;48.260;16.432;2022-11-15T05:04:15;99791.16;;;6.74;100.00
4022;BME280;2025;48.260;16.432;2022-11-15T05:06:48;99795.56;;;6.77;100.00
4022;BME280;2025;48.260;16.432;2022-11-15T05:09:15;99797.09;;;6.69;100.00
4022;BME280;2025;48.260;16.432;2022-11-15T05:11:42;99798.09;;;6.74;100.00
4022;BME280;2025;48.260;16.432;2022-11-15T05:14:11;99793.72;;;6.73;100.00
4022;BME280;2025;48.260;16.432;2022-11-15T05:16:39;99787.72;;;6.75;100.00
4022;BME280;2025;48.260;16.432;2022-11-15T05:19:06;99790.97;;;6.67;100.00
4022;BME280;2025;48.260;16.432;2022-11-15T05:21:33;99796.75;;;6.55;100.00
4022;BME280;2025;48.260;16.432;2022-11-15T05:24:01;99790.75;;;6.58;100.00
4022;BME280;2025;48.260;16.432;2022-11-15T05:26:28;99791.50;;;6.54;100.00
4022;BME280;2025;48.260;16.432;2022-11-15T05:28:56;99781.25;;;6.60;100.00
4022;BME280;2025;48.260;16.432;2022-11-15T05:31:25;99782.03;;;6.57;100.00
4022;BME280;2025;48.260;16.432;2022-11-15T05:33:53;99779.09;;;6.43;100.00
4022;BME280;2025;48.260;16.432;2022-11-15T05:36:27;99777.50;;;6.49;100.00
4022;BME280;2025;48.260;16.432;2022-11-15T05:38:56;99782.66;;;6.47;100.00
4022;BME280;2025;48.260;16.432;2022-11-15T05:41:28;99776.66;;;6.50;100.00
4022;BME280;2025;48.260;16.432;2022-11-15T05:43:57;99769.53;;;6.42;100.00
4022;BME280;2025;48.260;16.432;2022-11-15T05:46:26;99779.94;;;6.42;100.00
4022;BME280;2025;48.260;16.432;2022-11-15T05:48:54;99780.78;;;6.41;100.00
4022;BME280;2025;48.260;16.432;2022-11-15T05:51:22;99771.13;;;6.37;100.00
4022;BME280;2025;48.260;16.432;2022-11-15T05:53:50;99763.28;;;6.36;100.00
4022;BME280;2025;48.260;16.432;2022-11-15T05:56:18;99768.69;;;6.43;100.00
4022;BME280;2025;48.260;16.432;2022-11-15T05:58:45;99765.09;;;6.38;100.00
4022;BME280;2025;48.260;16.432;2022-11-15T06:01:12;99766.53;;;6.27;100.00
4022;BME280;2025;48.260;16.432;2022-11-15T06:03:41;99771.09;;;6.36;100.00
4022;BME280;2025;48.260;16.432;2022-11-15T06:06:08;99768.28;;;6.28;100.00
4022;BME280;2025;48.260;16.432;2022-11-15T06:08:35;99768.50;;;6.36;100.00
4022;BME280;2025;48.260;16.432;2022-11-15T06:11:06;99760.66;;;6.34;100.00
4022;BME280;2025;48.260;16.432;2022-11-15T06:13:34;99759.91;;;6.40;100.00
4022;BME280;2025;48.260;16.432;2022-11-15T06:16:01;99765.25;;;6.44;100.00
4022;BME280;2025;48.260;16.432;2022-11-15T06:18:31;99764.09;;;6.33;100.00
4022;BME280;2025;48.260;16.432;2022-11-15T06:21:00;99770.19;;;6.34;100.00
4022;BME280;2025;48.260;16.432;2022-11-15T06:23:27;99771.94;;;6.35;100.00
4022;BME280;2025;48.260;16.432;2022-11-15T06:25:57;99779.94;;;6.42;100.00
4022;BME280;2025;48.260;16.432;2022-11-15T06:28:24;99773.81;;;6.40;100.00
4022;BME280;2025;48.260;16.432;2022-11-15T06:30:51;99775.66;;;6.44;100.00
4022;BME280;2025;48.260;16.432;2022-11-15T06:33:18;99771.31;;;6.45;100.00
4022;BME280;2025;48.260;16.432;2022-11-15T06:35:45;99773.84;;;6.42;100.00
4022;BME280;2025;48.260;16.432;2022-11-15T06:38:14;99766.78;;;6.36;100.00
4022;BME280;2025;48.260;16.432;2022-11-15T06:40:41;99772.81;;;6.35;100.00
4022;BME280;2025;48.260;16.432;2022-11-15T06:43:08;99769.38;;;6.36;100.00
4022;BME280;2025;48.260;16.432;2022-11-15T06:45:35;99771.22;;;6.40;100.00
4022;BME280;2025;48.260;16.432;2022-11-15T06:48:02;99770.28;;;6.38;100.00
4022;BME280;2025;48.260;16.432;2022-11-15T06:50:29;99772.00;;;6.38;100.00
4022;BME280;2025;48.260;16.432;2022-11-15T06:53:01;99773.66;;;6.34;100.00
4022;BME280;2025;48.260;16.432;2022-11-15T06:55:30;99779.78;;;6.36;100.00
4022;BME280;2025;48.260;16.432;2022-11-15T06:57:57;99781.66;;;6.42;100.00
4022;BME280;2025;48.260;16.432;2022-11-15T07:00:24;99772.06;;;6.39;100.00
4022;BME280;2025;48.260;16.432;2022-11-15T07:02:51;99777.34;;;6.42;100.00
4022;BME280;2025;48.260;16.432;2022-11-15T07:05:18;99779.25;;;6.50;100.00
4022;BME280;2025;48.260;16.432;2022-11-15T07:07:51;99774.19;;;6.56;100.00
4022;BME280;2025;48.260;16.432;2022-11-15T07:10:18;99772.44;;;6.55;100.00
4022;BME280;2025;48.260;16.432;2022-11-15T07:12:48;99770.88;;;6.61;100.00
4022;BME280;2025;48.260;16.432;2022-11-15T07:15:15;99777.53;;;6.50;100.00
4022;BME280;2025;48.260;16.432;2022-11-15T07:17:42;99768.03;;;6.52;100.00
4022;BME280;2025;48.260;16.432;2022-11-15T07:20:10;99764.75;;;6.59;100.00
4022;BME280;2025;48.260;16.432;2022-11-15T07:22:38;99770.75;;;6.57;100.00
4022;BME280;2025;48.260;16.432;2022-11-15T07:25:06;99766.47;;;6.59;100.00
4022;BME280;2025;48.260;16.432;2022-11-15T07:27:33;99760.25;;;6.54;100.00
4022;BME280;2025;48.260;16.432;2022-11-15T07:30:03;99754.44;;;6.64;100.00
4022;BME280;2025;48.260;16.432;2022-11-15T07:32:31;99748.25;;;6.59;100.00
4022;BME280;2025;48.260;16.432;2022-11-15T07:34:58;99750.19;;;6.67;100.00
4022;BME280;2025;48.260;16.432;2022-11-15T07:37:25;99745.81;;;6.66;100.00
4022;BME280;2025;48.260;16.432;2022-11-15T07:39:52;99751.13;;;6.71;100.00
4022;BME280;2025;48.260;16.432;2022-11-15T07:42:19;99747.69;;;6.72;100.00
4022;BME280;2025;48.260;16.432;2022-11-15T07:45:05;99745.09;;;6.72;100.00
4022;BME280;2025;48.260;16.432;2022-11-15T07:47:32;99742.59;;;6.76;100.00
4022;BME280;2025;48.260;16.432;2022-11-15T07:49:59;99741.13;;;6.88;100.00
4022;BME280;2025;48.260;16.432;2022-11-15T07:52:26;99734.09;;;6.85;100.00
4022;BME280;2025;48.260;16.432;2022-11-15T07:54:53;99747.06;;;6.82;100.00
4022;BME280;2025;48.260;16.432;2022-11-15T07:57:20;99747.72;;;6.73;100.00
4022;BME280;2025;48.260;16.432;2022-11-15T07:59:47;99745.31;;;6.81;100.00
4022;BME280;2025;48.260;16.432;2022-11-15T08:02:15;99750.25;;;6.70;100.00
4022;BME280;2025;48.260;16.432;2022-11-15T08:04:43;99740.84;;;6.75;100.00
4022;BME280;2025;48.260;16.432;2022-11-15T08:07:10;99736.28;;;6.67;100.00
4022;BME280;2025;48.260;16.432;2022-11-15T08:09:37;99737.97;;;6.65;100.00
4022;BME280;2025;48.260;16.432;2022-11-15T08:12:04;99736.41;;;6.71;100.00
4022;BME280;2025;48.260;16.432;2022-11-15T08:14:32;99727.81;;;6.75;100.00
4022;BME280;2025;48.260;16.432;2022-11-15T08:17:04;99730.31;;;6.71;100.00
4022;BME280;2025;48.260;16.432;2022-11-15T08:19:33;99732.16;;;6.76;100.00
4022;BME280;2025;48.260;16.432;2022-11-15T08:22:00;99721.69;;;6.73;100.00
4022;BME280;2025;48.260;16.432;2022-11-15T08:24:27;99722.78;;;6.83;100.00
4022;BME280;2025;48.260;16.432;2022-11-15T08:26:54;99727.06;;;6.81;100.00
4022;BME280;2025;48.260;16.432;2022-11-15T08:29:21;99720.25;;;6.86;100.00
4022;BME280;2025;48.260;16.432;2022-11-15T08:31:48;99716.59;;;6.78;100.00
4022;BME280;2025;48.260;16.432;2022-11-15T08:34:15;99715.75;;;6.79;100.00
4022;BME280;2025;48.260;16.432;2022-11-15T08:36:44;99716.66;;;6.81;100.00
4022;BME280;2025;48.260;16.432;2022-11-15T08:39:11;99711.56;;;6.86;100.00
4022;BME280;2025;48.260;16.432;2022-11-15T08:41:38;99719.41;;;6.87;100.00
4022;BME280;2025;48.260;16.432;2022-11-15T08:44:05;99714.19;;;6.87;100.00
4022;BME280;2025;48.260;16.432;2022-11-15T08:46:32;99725.56;;;6.91;100.00
4022;BME280;2025;48.260;16.432;2022-11-15T08:48:59;99717.00;;;6.95;100.00
4022;BME280;2025;48.260;16.432;2022-11-15T08:51:26;99716.19;;;6.97;100.00
4022;BME280;2025;48.260;16.432;2022-11-15T08:53:55;99710.84;;;6.93;100.00
4022;BME280;2025;48.260;16.432;2022-11-15T08:56:22;99711.81;;;6.96;100.00
4022;BME280;2025;48.260;16.432;2022-11-15T08:58:49;99711.88;;;6.99;100.00
4022;BME280;2025;48.260;16.432;2022-11-15T09:01:16;99709.03;;;6.90;100.00
4022;BME280;2025;48.260;16.432;2022-11-15T09:03:44;99714.63;;;7.05;100.00
4022;BME280;2025;48.260;16.432;2022-11-15T09:06:11;99712.34;;;7.21;100.00
4022;BME280;2025;48.260;16.432;2022-11-15T09:08:39;99706.97;;;7.13;100.00
4022;BME280;2025;48.260;16.432;2022-11-15T09:11:08;99712.81;;;7.01;100.00
4022;BME280;2025;48.260;16.432;2022-11-15T09:13:36;99707.75;;;7.09;100.00
4022;BME280;2025;48.260;16.432;2022-11-15T09:16:04;99704.41;;;7.15;100.00
4022;BME280;2025;48.260;16.432;2022-11-15T09:18:31;99701.69;;;7.10;100.00
4022;BME280;2025;48.260;16.432;2022-11-15T09:20:59;99694.91;;;7.17;100.00
4022;BME280;2025;48.260;16.432;2022-11-15T09:23:27;99692.16;;;7.11;100.00
4022;BME280;2025;48.260;16.432;2022-11-15T09:25:58;99687.69;;;7.05;100.00
4022;BME280;2025;48.260;16.432;2022-11-15T09:28:27;99698.81;;;6.96;100.00
4022;BME280;2025;48.260;16.432;2022-11-15T09:30:56;99682.34;;;6.99;100.00
4022;BME280;2025;48.260;16.432;2022-11-15T09:33:24;99690.41;;;7.10;100.00
4022;BME280;2025;48.260;16.432;2022-11-15T09:35:52;99683.41;;;7.07;100.00
4022;BME280;2025;48.260;16.432;2022-11-15T09:38:19;99672.09;;;7.06;100.00
4022;BME280;2025;48.260;16.432;2022-11-15T09:40:50;99668.69;;;7.09;100.00
4022;BME280;2025;48.260;16.432;2022-11-15T09:43:32;99666.22;;;7.17;100.00
4022;BME280;2025;48.260;16.432;2022-11-15T09:46:11;99661.13;;;7.21;100.00
4022;BME280;2025;48.260;16.432;2022-11-15T09:48:59;99650.84;;;7.29;100.00
4022;BME280;2025;48.260;16.432;2022-11-15T09:51:30;99647.44;;;7.33;100.00
4022;BME280;2025;48.260;16.432;2022-11-15T09:54:05;99637.03;;;7.33;100.00
4022;BME280;2025;48.260;16.432;2022-11-15T09:56:41;99634.38;;;7.31;100.00
4022;BME280;2025;48.260;16.432;2022-11-15T10:02:12;99617.78;;;7.26;100.00
4022;BME280;2025;48.260;16.432;2022-11-15T10:04:45;99616.72;;;7.17;100.00
4022;BME280;2025;48.260;16.432;2022-11-15T10:07:15;99619.59;;;7.30;100.00
4022;BME280;2025;48.260;16.432;2022-11-15T10:09:46;99617.00;;;7.30;100.00
4022;BME280;2025;48.260;16.432;2022-11-15T10:12:15;99609.00;;;7.21;100.00
4022;BME280;2025;48.260;16.432;2022-11-15T10:14:45;99604.91;;;7.34;100.00
4022;BME280;2025;48.260;16.432;2022-11-15T10:20:17;99599.53;;;7.26;100.00
4022;BME280;2025;48.260;16.432;2022-11-15T10:22:48;99598.69;;;7.27;100.00
4022;BME280;2025;48.260;16.432;2022-11-15T10:25:19;99587.44;;;7.30;100.00
4022;BME280;2025;48.260;16.432;2022-11-15T10:27:53;99591.03;;;7.36;100.00
4022;BME280;2025;48.260;16.432;2022-11-15T10:30:23;99577.25;;;7.42;100.00
4022;BME280;2025;48.260;16.432;2022-11-15T10:32:56;99578.97;;;7.42;100.00
4022;BME280;2025;48.260;16.432;2022-11-15T10:35:25;99576.41;;;7.43;100.00
4022;BME280;2025;48.260;16.432;2022-11-15T10:37:56;99568.03;;;7.62;100.00
4022;BME280;2025;48.260;16.432;2022-11-15T10:40:30;99562.72;;;7.56;100.00
4022;BME280;2025;48.260;16.432;2022-11-15T10:43:05;99565.22;;;7.50;100.00
4022;BME280;2025;48.260;16.432;2022-11-15T10:45:34;99559.28;;;7.59;100.00
4022;BME280;2025;48.260;16.432;2022-11-15T10:48:23;99549.69;;;7.56;100.00
4022;BME280;2025;48.260;16.432;2022-11-15T10:50:51;99547.13;;;7.59;100.00
4022;BME280;2025;48.260;16.432;2022-11-15T10:53:26;99558.38;;;7.55;100.00
4022;BME280;2025;48.260;16.432;2022-11-15T10:55:59;99544.66;;;7.67;100.00
4022;BME280;2025;48.260;16.432;2022-11-15T10:58:36;99550.81;;;7.72;100.00
4022;BME280;2025;48.260;16.432;2022-11-15T11:01:14;99539.47;;;7.68;100.00
4022;BME280;2025;48.260;16.432;2022-11-15T11:03:42;99540.19;;;7.60;100.00
4022;BME280;2025;48.260;16.432;2022-11-15T11:06:11;99543.84;;;7.71;100.00
4022;BME280;2025;48.260;16.432;2022-11-15T11:08:38;99530.81;;;7.71;100.00
4022;BME280;2025;48.260;16.432;2022-11-15T11:11:06;99524.75;;;7.72;100.00
4022;BME280;2025;48.260;16.432;2022-11-15T11:13:36;99527.44;;;7.77;100.00
4022;BME280;2025;48.260;16.432;2022-11-15T11:16:30;99521.19;;;7.67;100.00
4022;BME280;2025;48.260;16.432;2022-11-15T11:19:04;99515.16;;;7.71;100.00
4022;BME280;2025;48.260;16.432;2022-11-15T11:21:43;99513.38;;;7.68;100.00
4022;BME280;2025;48.260;16.432;2022-11-15T11:24:21;99515.47;;;7.91;100.00
4022;BME280;2025;48.260;16.432;2022-11-15T11:27:03;99503.06;;;7.76;100.00
4022;BME280;2025;48.260;16.432;2022-11-15T11:29:43;99497.94;;;7.81;100.00
4022;BME280;2025;48.260;16.432;2022-11-15T11:32:27;99497.78;;;7.71;100.00
4022;BME280;2025;48.260;16.432;2022-11-15T11:35:01;99495.19;;;7.71;100.00
4022;BME280;2025;48.260;16.432;2022-11-15T11:37:42;99492.44;;;7.64;100.00
4022;BME280;2025;48.260;16.432;2022-11-15T11:40:20;99491.69;;;7.69;100.00
4022;BME280;2025;48.260;16.432;2022-11-15T11:42:55;99483.06;;;7.75;100.00
4022;BME280;2025;48.260;16.432;2022-11-15T11:45:47;99485.72;;;7.78;100.00
4022;BME280;2025;48.260;16.432;2022-11-15T11:48:30;99478.97;;;7.91;100.00
4022;BME280;2025;48.260;16.432;2022-11-15T11:51:07;99464.00;;;7.79;100.00
4022;BME280;2025;48.260;16.432;2022-11-15T11:53:39;99455.25;;;7.76;100.00
4022;BME280;2025;48.260;16.432;2022-11-15T11:56:16;99462.22;;;7.77;100.00
4022;BME280;2025;48.260;16.432;2022-11-15T11:58:46;99454.41;;;7.77;100.00
4022;BME280;2025;48.260;16.432;2022-11-15T12:01:20;99450.94;;;7.78;100.00
4022;BME280;2025;48.260;16.432;2022-11-15T12:03:54;99457.06;;;7.80;100.00
4022;BME280;2025;48.260;16.432;2022-11-15T12:06:31;99453.72;;;7.90;100.00
4022;BME280;2025;48.260;16.432;2022-11-15T12:09:03;99443.06;;;7.75;100.00
4022;BME280;2025;48.260;16.432;2022-11-15T12:11:38;99442.28;;;7.80;100.00
4022;BME280;2025;48.260;16.432;2022-11-15T12:14:19;99448.31;;;7.76;100.00
4022;BME280;2025;48.260;16.432;2022-11-15T12:16:48;99431.06;;;7.86;100.00
4022;BME280;2025;48.260;16.432;2022-11-15T12:19:17;99431.00;;;7.83;100.00
4022;BME280;2025;48.260;16.432;2022-11-15T12:21:47;99429.28;;;7.83;100.00
4022;BME280;2025;48.260;16.432;2022-11-15T12:24:19;99417.94;;;7.80;100.00
4022;BME280;2025;48.260;16.432;2022-11-15T12:26:52;99414.72;;;7.99;100.00
4022;BME280;2025;48.260;16.432;2022-11-15T12:29:25;99407.63;;;7.89;100.00
4022;BME280;2025;48.260;16.432;2022-11-15T12:31:56;99410.34;;;7.98;100.00
4022;BME280;2025;48.260;16.432;2022-11-15T12:34:44;99404.19;;;7.93;100.00
4022;BME280;2025;48.260;16.432;2022-11-15T12:40:31;99395.34;;;7.82;100.00
4022;BME280;2025;48.260;16.432;2022-11-15T12:43:10;99393.66;;;7.84;100.00
4022;BME280;2025;48.260;16.432;2022-11-15T12:45:53;99389.22;;;7.78;100.00
4022;BME280;2025;48.260;16.432;2022-11-15T12:48:52;99395.34;;;7.82;100.00
4022;BME280;2025;48.260;16.432;2022-11-15T12:52:02;99390.19;;;7.85;100.00
4022;BME280;2025;48.260;16.432;2022-11-15T12:57:38;99389.34;;;7.87;100.00
4022;BME280;2025;48.260;16.432;2022-11-15T13:03:27;99381.59;;;7.93;100.00
4022;BME280;2025;48.260;16.432;2022-11-15T13:05:59;99379.00;;;7.93;100.00
4022;BME280;2025;48.260;16.432;2022-11-15T13:08:45;99365.13;;;7.96;100.00
4022;BME280;2025;48.260;16.432;2022-11-15T13:14:49;99360.06;;;8.10;100.00
4022;BME280;2025;48.260;16.432;2022-11-15T13:17:29;99357.47;;;8.11;100.00
4022;BME280;2025;48.260;16.432;2022-11-15T13:20:18;99347.94;;;8.13;100.00
4022;BME280;2025;48.260;16.432;2022-11-15T13:22:46;99347.06;;;8.14;100.00
4022;BME280;2025;48.260;16.432;2022-11-15T13:25:54;99333.19;;;8.18;100.00
4022;BME280;2025;48.260;16.432;2022-11-15T13:28:31;99327.94;;;8.15;100.00
4022;BME280;2025;48.260;16.432;2022-11-15T13:31:02;99331.53;;;8.25;100.00
4022;BME280;2025;48.260;16.432;2022-11-15T13:33:32;99335.19;;;8.38;100.00
4022;BME280;2025;48.260;16.432;2022-11-15T13:36:02;99329.06;;;8.35;100.00
4022;BME280;2025;48.260;16.432;2022-11-15T13:38:31;99324.72;;;8.34;100.00
4022;BME280;2025;48.260;16.432;2022-11-15T13:41:11;99315.16;;;8.35;100.00
4022;BME280;2025;48.260;16.432;2022-11-15T13:43:40;99318.63;;;8.35;100.00
4022;BME280;2025;48.260;16.432;2022-11-15T13:46:11;99315.19;;;8.40;100.00
4022;BME280;2025;48.260;16.432;2022-11-15T13:48:39;99309.09;;;8.39;100.00
4022;BME280;2025;48.260;16.432;2022-11-15T13:51:17;99308.22;;;8.39;100.00
4022;BME280;2025;48.260;16.432;2022-11-15T13:53:47;99304.81;;;8.46;100.00